createdAt,value
2022-09-02T00:01:15.116Z,17.30
2022-09-02T00:03:43.063Z,17.29
2022-09-02T00:06:11.141Z,17.30
2022-09-02T00:08:39.060Z,17.40
2022-09-02T00:11:08.421Z,17.22
2022-09-02T00:13:37.827Z,17.29
2022-09-02T00:16:06.473Z,17.28
2022-09-02T00:18:34.509Z,17.17
2022-09-02T00:21:03.208Z,17.23
2022-09-02T00:23:31.020Z,17.17
2022-09-02T00:25:59.185Z,17.17
2022-09-02T00:28:27.325Z,17.23
2022-09-02T00:30:56.561Z,17.21
2022-09-02T00:33:24.372Z,17.07
2022-09-02T00:35:52.196Z,17.09
2022-09-02T00:38:20.070Z,17.09
2022-09-02T00:40:49.513Z,17.13
2022-09-02T00:43:24.423Z,17.03
2022-09-02T00:45:53.223Z,17.11
2022-09-02T00:48:22.405Z,17.13
2022-09-02T00:50:51.017Z,17.06
2022-09-02T00:53:19.092Z,17.04
2022-09-02T00:55:48.667Z,17.13
2022-09-02T00:58:17.841Z,17.07
2022-09-02T01:00:46.640Z,17.07
2022-09-02T01:03:16.133Z,16.98
2022-09-02T01:05:47.031Z,17.11
2022-09-02T01:08:15.108Z,17.04
2022-09-02T01:10:43.114Z,17.09
2022-09-02T01:13:12.586Z,17.04
2022-09-02T01:15:44.927Z,17.02
2022-09-02T01:18:15.842Z,17.20
2022-09-02T01:20:44.996Z,17.06
2022-09-02T01:23:14.400Z,17.11
2022-09-02T01:25:43.046Z,17.25
2022-09-02T01:28:12.815Z,17.20
2022-09-02T01:30:42.248Z,17.31
2022-09-02T01:33:10.918Z,17.24
2022-09-02T01:35:38.781Z,17.30
2022-09-02T01:38:06.720Z,17.30
2022-09-02T01:40:36.110Z,17.35
2022-09-02T01:43:07.640Z,17.44
2022-09-02T01:45:35.731Z,17.37
2022-09-02T01:48:03.808Z,17.46
2022-09-02T01:50:31.899Z,17.52
2022-09-02T01:53:01.685Z,17.44
2022-09-02T01:55:29.828Z,17.57
2022-09-02T01:57:59.060Z,17.61
2022-09-02T02:00:26.930Z,17.63
2022-09-02T02:02:54.777Z,17.61
2022-09-02T02:05:23.047Z,17.54
2022-09-02T02:07:50.998Z,17.62
2022-09-02T02:10:19.691Z,17.62
2022-09-02T02:12:47.579Z,17.56
2022-09-02T02:15:18.084Z,17.51
2022-09-02T02:17:45.933Z,17.52
2022-09-02T02:20:16.963Z,17.52
2022-09-02T02:22:45.170Z,17.60
2022-09-02T02:25:15.017Z,17.55
2022-09-02T02:27:43.792Z,17.65
2022-09-02T02:30:12.917Z,17.66
2022-09-02T02:32:43.338Z,17.62
2022-09-02T02:35:12.100Z,17.67
2022-09-02T02:37:39.945Z,17.66
2022-09-02T02:40:08.821Z,17.47
2022-09-02T02:42:37.024Z,17.52
2022-09-02T02:45:10.127Z,17.56
2022-09-02T02:47:46.174Z,17.53
2022-09-02T02:50:15.588Z,17.42
2022-09-02T02:52:43.767Z,17.37
2022-09-02T02:55:12.166Z,17.41
2022-09-02T02:57:40.664Z,17.52
2022-09-02T03:00:09.825Z,17.33
2022-09-02T03:02:37.764Z,17.42
2022-09-02T03:05:08.041Z,17.47
2022-09-02T03:07:36.239Z,17.45
2022-09-02T03:10:05.245Z,17.39
2022-09-02T03:12:33.721Z,17.44
2022-09-02T03:15:02.225Z,17.45
2022-09-02T03:17:30.144Z,17.37
2022-09-02T03:19:59.446Z,17.32
2022-09-02T03:22:29.683Z,17.29
2022-09-02T03:24:57.512Z,17.30
2022-09-02T03:27:25.335Z,17.34
2022-09-02T03:29:53.196Z,17.40
2022-09-02T03:32:21.372Z,17.38
2022-09-02T03:34:49.152Z,17.25
2022-09-02T03:37:17.595Z,17.23
2022-09-02T03:39:47.146Z,17.28
2022-09-02T03:42:19.266Z,17.18
2022-09-02T03:44:47.416Z,17.14
2022-09-02T03:47:17.704Z,17.14
2022-09-02T03:49:48.756Z,17.13
2022-09-02T03:52:16.589Z,16.96
2022-09-02T03:54:44.465Z,17.02
2022-09-02T03:57:13.697Z,17.06
2022-09-02T03:59:42.210Z,17.04
2022-09-02T04:02:10.400Z,17.01
2022-09-02T04:04:38.394Z,16.90
2022-09-02T04:07:06.283Z,16.79
2022-09-02T04:09:34.162Z,16.79
2022-09-02T04:12:01.981Z,16.81
2022-09-02T04:14:31.334Z,16.73
2022-09-02T04:16:59.220Z,16.76
2022-09-02T04:19:27.054Z,16.81
2022-09-02T04:21:55.162Z,16.71
2022-09-02T04:24:23.243Z,16.71
2022-09-02T04:26:51.074Z,16.62
2022-09-02T04:29:19.671Z,16.65
2022-09-02T04:31:48.820Z,16.59
2022-09-02T04:34:16.722Z,16.59
2022-09-02T04:36:44.599Z,16.60
2022-09-02T04:39:12.754Z,16.57
2022-09-02T04:41:40.605Z,16.48
2022-09-02T04:44:09.494Z,16.46
2022-09-02T04:46:37.297Z,16.56
2022-09-02T04:49:07.001Z,16.55
2022-09-02T04:51:34.886Z,16.64
2022-09-02T04:54:02.869Z,16.53
2022-09-02T04:56:31.852Z,16.56
2022-09-02T04:58:59.736Z,16.44
2022-09-02T05:01:30.212Z,16.43
2022-09-02T05:03:58.408Z,16.35
2022-09-02T05:06:28.668Z,16.48
2022-09-02T05:08:56.630Z,16.37
2022-09-02T05:11:28.546Z,16.42
2022-09-02T05:13:57.110Z,16.35
2022-09-02T05:16:26.541Z,16.48
2022-09-02T05:18:54.619Z,16.40
2022-09-02T05:21:23.296Z,16.28
2022-09-02T05:23:58.945Z,16.39
2022-09-02T05:26:32.126Z,16.53
2022-09-02T05:29:00.956Z,16.53
2022-09-02T05:31:29.093Z,16.59
2022-09-02T05:33:57.247Z,16.45
2022-09-02T05:36:25.092Z,16.46
2022-09-02T05:38:54.273Z,16.52
2022-09-02T05:41:24.266Z,16.60
2022-09-02T05:43:53.469Z,16.63
2022-09-02T05:46:23.425Z,16.50
2022-09-02T05:49:07.366Z,16.65
2022-09-02T05:51:39.074Z,16.67
2022-09-02T05:54:08.382Z,16.64
2022-09-02T05:56:36.532Z,16.75
2022-09-02T05:59:04.382Z,16.76
2022-09-02T06:01:32.229Z,16.80
2022-09-02T06:04:02.364Z,16.87
2022-09-02T06:06:30.308Z,16.84
2022-09-02T06:08:58.266Z,16.97
2022-09-02T06:11:28.897Z,16.89
2022-09-02T06:13:57.461Z,16.83
2022-09-02T06:16:26.376Z,16.91
2022-09-02T06:18:54.493Z,16.88
2022-09-02T06:21:22.304Z,16.81
2022-09-02T06:23:50.114Z,16.84
2022-09-02T06:26:18.518Z,16.65
2022-09-02T06:28:47.688Z,16.83
2022-09-02T06:31:16.914Z,16.77
2022-09-02T06:33:44.746Z,16.86
2022-09-02T06:36:14.098Z,16.91
2022-09-02T06:38:46.036Z,16.87
2022-09-02T06:41:14.590Z,16.84
2022-09-02T06:43:43.096Z,16.99
2022-09-02T06:46:15.872Z,17.07
2022-09-02T06:48:43.787Z,17.10
2022-09-02T06:51:17.672Z,17.39
2022-09-02T06:53:45.548Z,17.32
2022-09-02T06:56:13.372Z,17.49
2022-09-02T06:58:41.503Z,17.66
2022-09-02T07:01:18.425Z,17.72
2022-09-02T07:04:04.000Z,17.83
2022-09-02T07:06:36.665Z,17.89
2022-09-02T07:09:05.199Z,18.14
2022-09-02T07:11:33.359Z,18.07
2022-09-02T07:14:01.864Z,18.32
2022-09-02T07:16:31.474Z,18.48
2022-09-02T07:19:01.266Z,18.41
2022-09-02T07:21:29.840Z,18.55
2022-09-02T07:23:59.215Z,18.73
2022-09-02T07:26:27.136Z,18.90
2022-09-02T07:28:55.016Z,18.87
2022-09-02T07:31:23.394Z,18.95
2022-09-02T07:33:52.911Z,19.29
2022-09-02T07:36:21.751Z,19.11
2022-09-02T07:38:50.099Z,19.21
2022-09-02T07:41:17.927Z,19.30
2022-09-02T07:43:49.602Z,19.37
2022-09-02T07:46:19.532Z,19.44
2022-09-02T07:48:50.229Z,19.63
2022-09-02T07:51:20.184Z,19.70
2022-09-02T07:53:48.090Z,19.87
2022-09-02T07:56:16.201Z,19.93
2022-09-02T07:58:44.254Z,20.15
2022-09-02T08:01:12.220Z,20.23
2022-09-02T08:03:40.582Z,20.13
2022-09-02T08:06:09.396Z,20.22
2022-09-02T08:08:43.609Z,20.16
2022-09-02T08:11:14.853Z,20.29
2022-09-02T08:13:43.046Z,20.38
2022-09-02T08:16:10.973Z,20.29
2022-09-02T08:18:45.435Z,20.33
2022-09-02T08:21:14.780Z,20.40
2022-09-02T08:23:44.740Z,20.46
2022-09-02T08:26:12.771Z,20.45
2022-09-02T08:28:40.772Z,20.77
2022-09-02T08:31:08.671Z,21.07
2022-09-02T08:33:36.607Z,21.19
2022-09-02T08:36:06.822Z,21.20
2022-09-02T08:38:34.746Z,21.11
2022-09-02T08:41:03.997Z,21.02
2022-09-02T08:43:37.404Z,21.41
2022-09-02T08:46:05.607Z,21.20
2022-09-02T08:48:36.668Z,21.51
2022-09-02T08:51:06.970Z,21.38
2022-09-02T08:53:37.505Z,21.68
2022-09-02T08:56:07.067Z,21.42
2022-09-02T08:58:39.284Z,21.53
2022-09-02T09:01:11.641Z,21.51
2022-09-02T09:03:47.853Z,21.55
2022-09-02T09:06:24.018Z,21.57
2022-09-02T09:09:00.175Z,21.85
2022-09-02T09:11:31.810Z,22.06
2022-09-02T09:14:04.490Z,22.16
2022-09-02T09:16:39.791Z,21.84
2022-09-02T09:19:10.865Z,22.08
2022-09-02T09:21:40.896Z,22.25
2022-09-02T09:24:10.747Z,22.19
2022-09-02T09:26:40.971Z,22.35
2022-09-02T09:29:09.145Z,22.57
2022-09-02T09:31:38.800Z,22.54
2022-09-02T09:34:07.638Z,22.33
2022-09-02T09:36:46.481Z,22.28
2022-09-02T09:39:18.925Z,21.94
2022-09-02T09:41:48.323Z,22.02
2022-09-02T09:44:35.468Z,22.48
2022-09-02T09:47:04.287Z,22.43
2022-09-02T09:49:33.474Z,22.30
2022-09-02T09:52:01.299Z,22.63
2022-09-02T09:54:29.111Z,22.59
2022-09-02T09:56:58.354Z,22.55
2022-09-02T09:59:41.390Z,22.83
2022-09-02T10:02:14.852Z,22.90
2022-09-02T10:04:43.890Z,23.09
2022-09-02T10:07:13.473Z,23.16
2022-09-02T10:09:41.652Z,23.52
2022-09-02T10:12:12.248Z,23.72
2022-09-02T10:14:41.325Z,23.93
2022-09-02T10:17:22.926Z,24.08
2022-09-02T10:19:54.443Z,23.76
2022-09-02T10:22:58.418Z,23.60
2022-09-02T10:25:34.076Z,23.71
2022-09-02T10:28:10.119Z,23.65
2022-09-02T10:30:41.224Z,23.74
2022-09-02T10:33:16.145Z,23.42
2022-09-02T10:35:44.512Z,23.54
2022-09-02T10:38:34.227Z,23.47
2022-09-02T10:41:05.774Z,23.44
2022-09-02T10:44:11.523Z,23.55
2022-09-02T10:46:45.878Z,23.07
2022-09-02T10:49:18.071Z,23.17
2022-09-02T10:51:59.772Z,23.03
2022-09-02T10:54:43.180Z,23.55
2022-09-02T10:57:13.005Z,23.23
2022-09-02T10:59:42.508Z,23.46
2022-09-02T11:02:14.423Z,23.56
2022-09-02T11:04:46.697Z,23.47
2022-09-02T11:07:17.547Z,23.31
2022-09-02T11:09:46.056Z,23.45
2022-09-02T11:12:16.840Z,23.57
2022-09-02T11:14:52.904Z,23.49
2022-09-02T11:17:24.920Z,23.67
2022-09-02T11:19:54.351Z,23.52
2022-09-02T11:22:27.404Z,23.94
2022-09-02T11:24:58.132Z,24.10
2022-09-02T11:27:42.269Z,23.94
2022-09-02T11:30:13.552Z,23.84
2022-09-02T11:32:46.232Z,23.77
2022-09-02T11:35:15.991Z,23.66
2022-09-02T11:37:47.440Z,23.42
2022-09-02T11:40:33.807Z,23.53
2022-09-02T11:43:18.899Z,23.58
2022-09-02T11:46:05.097Z,24.22
2022-09-02T11:48:52.853Z,23.92
2022-09-02T11:51:43.364Z,23.94
2022-09-02T11:54:15.627Z,24.01
2022-09-02T11:56:47.636Z,23.81
2022-09-02T11:59:21.632Z,23.92
2022-09-02T12:01:51.015Z,23.92
2022-09-02T12:07:26.552Z,24.12
2022-09-02T12:09:57.456Z,24.17
2022-09-02T12:12:59.745Z,24.07
2022-09-02T12:15:30.196Z,23.98
2022-09-02T12:18:29.206Z,23.67
2022-09-02T12:21:16.297Z,23.94
2022-09-02T12:24:21.143Z,23.90
2022-09-02T12:27:13.568Z,23.85
2022-09-02T12:29:46.815Z,24.22
2022-09-02T12:32:51.572Z,24.15
2022-09-02T12:35:32.809Z,23.79
2022-09-02T12:38:21.129Z,24.16
2022-09-02T12:40:55.322Z,24.24
2022-09-02T12:43:26.911Z,24.23
2022-09-02T12:45:57.611Z,24.18
2022-09-02T12:48:38.451Z,24.37
2022-09-02T12:51:06.821Z,24.26
2022-09-02T12:53:38.484Z,24.10
2022-09-02T12:56:09.546Z,24.28
2022-09-02T12:58:42.932Z,24.29
2022-09-02T13:01:15.157Z,23.99
2022-09-02T13:04:23.365Z,24.11
2022-09-02T13:07:33.452Z,24.19
2022-09-02T13:10:24.544Z,24.03
2022-09-02T13:13:21.001Z,23.98
2022-09-02T13:16:18.503Z,24.01
2022-09-02T13:19:20.112Z,24.18
2022-09-02T13:22:22.104Z,23.90
2022-09-02T13:25:09.987Z,24.21
2022-09-02T13:28:04.081Z,24.38
2022-09-02T13:30:40.272Z,24.32
2022-09-02T13:33:08.671Z,23.86
2022-09-02T13:35:39.224Z,24.02
2022-09-02T13:38:08.787Z,23.93
2022-09-02T13:40:40.222Z,24.01
2022-09-02T13:43:18.175Z,24.05
2022-09-02T13:45:46.608Z,24.16
2022-09-02T13:48:16.882Z,24.35
2022-09-02T13:50:45.233Z,24.24
2022-09-02T13:56:07.039Z,24.32
2022-09-02T13:58:37.962Z,24.28
2022-09-02T14:01:24.412Z,24.31
2022-09-02T14:03:53.094Z,24.30
2022-09-02T14:06:23.482Z,24.42
2022-09-02T14:08:52.973Z,24.56
2022-09-02T14:11:22.379Z,24.22
2022-09-02T14:13:50.757Z,24.48
2022-09-02T14:16:29.261Z,24.60
2022-09-02T14:19:11.623Z,24.17
2022-09-02T14:21:45.491Z,24.44
2022-09-02T14:24:19.528Z,24.47
2022-09-02T14:26:59.162Z,24.57
2022-09-02T14:29:30.340Z,24.56
2022-09-02T14:32:13.893Z,24.50
2022-09-02T14:34:42.701Z,24.43
2022-09-02T14:37:24.310Z,24.33
2022-09-02T14:39:53.511Z,24.55
2022-09-02T14:42:22.962Z,24.35
2022-09-02T14:44:50.807Z,24.79
2022-09-02T14:47:20.764Z,24.51
2022-09-02T14:49:51.164Z,24.58
2022-09-02T14:52:21.618Z,24.44
2022-09-02T14:54:52.511Z,24.69
2022-09-02T14:57:28.018Z,24.73
2022-09-02T14:59:56.751Z,24.24
2022-09-02T15:02:25.946Z,24.57
2022-09-02T15:04:54.087Z,24.30
2022-09-02T15:07:24.371Z,24.33
2022-09-02T15:09:53.450Z,24.43
2022-09-02T15:12:24.716Z,24.53
2022-09-02T15:14:54.026Z,24.58
2022-09-02T15:17:22.424Z,24.57
2022-09-02T15:19:50.553Z,24.66
2022-09-02T15:22:18.790Z,24.60
2022-09-02T15:24:47.063Z,24.64
2022-09-02T15:27:14.946Z,24.59
2022-09-02T15:29:46.136Z,24.71
2022-09-02T15:32:15.461Z,24.63
2022-09-02T15:34:43.341Z,24.56
2022-09-02T15:37:13.261Z,24.71
2022-09-02T15:39:41.300Z,24.59
2022-09-02T15:42:09.198Z,24.80
2022-09-02T15:44:37.033Z,24.61
2022-09-02T15:47:05.399Z,24.57
2022-09-02T15:49:34.741Z,24.66
2022-09-02T15:52:03.044Z,24.87
2022-09-02T15:54:31.615Z,24.83
2022-09-02T15:56:59.883Z,24.56
2022-09-02T15:59:28.271Z,24.67
2022-09-02T16:01:57.267Z,24.87
2022-09-02T16:04:27.208Z,24.68
2022-09-02T16:06:56.554Z,24.78
2022-09-02T16:09:24.464Z,24.56
2022-09-02T16:11:53.665Z,24.77
2022-09-02T16:14:22.233Z,24.90
2022-09-02T16:16:50.774Z,24.81
2022-09-02T16:19:20.418Z,24.81
2022-09-02T16:21:48.320Z,24.89
2022-09-02T16:24:18.233Z,24.88
2022-09-02T16:26:46.176Z,24.87
2022-09-02T16:29:15.015Z,24.56
2022-09-02T16:31:45.971Z,24.56
2022-09-02T16:34:25.105Z,24.60
2022-09-02T16:36:52.985Z,24.49
2022-09-02T16:39:22.379Z,24.45
2022-09-02T16:41:51.636Z,24.43
2022-09-02T16:44:21.251Z,24.21
2022-09-02T16:46:49.848Z,24.29
2022-09-02T16:49:19.202Z,24.37
2022-09-02T16:51:47.092Z,24.13
2022-09-02T16:54:17.846Z,23.95
2022-09-02T16:56:53.206Z,24.09
2022-09-02T16:59:24.753Z,24.12
2022-09-02T17:01:52.852Z,23.98
2022-09-02T17:04:20.747Z,23.81
2022-09-02T17:06:48.839Z,23.72
2022-09-02T17:09:16.874Z,23.63
2022-09-02T17:11:45.680Z,23.43
2022-09-02T17:14:16.735Z,23.41
2022-09-02T17:16:45.706Z,23.58
2022-09-02T17:19:21.202Z,23.52
2022-09-02T17:21:50.823Z,23.49
2022-09-02T17:24:19.200Z,23.52
2022-09-02T17:26:47.865Z,23.36
2022-09-02T17:29:46.960Z,23.27
2022-09-02T17:32:06.126Z,23.23
2022-09-02T17:34:37.040Z,23.30
2022-09-02T17:37:07.803Z,23.18
2022-09-02T17:39:35.788Z,23.12
2022-09-02T17:42:03.063Z,23.04
2022-09-02T17:44:33.550Z,22.97
2022-09-02T17:47:01.715Z,22.95
2022-09-02T17:49:30.097Z,22.55
2022-09-02T17:52:00.323Z,22.77
2022-09-02T17:54:28.720Z,22.63
2022-09-02T17:57:10.700Z,22.81
2022-09-02T17:59:48.549Z,22.61
2022-09-02T18:02:45.396Z,22.52
2022-09-02T18:05:17.428Z,22.46
2022-09-02T18:07:51.023Z,22.33
2022-09-02T18:10:18.919Z,22.21
2022-09-02T18:12:46.859Z,22.25
2022-09-02T18:15:18.071Z,22.18
2022-09-02T18:17:48.123Z,21.97
2022-09-02T18:20:20.425Z,22.00
2022-09-02T18:23:11.832Z,21.89
2022-09-02T18:25:58.982Z,21.80
2022-09-02T18:28:38.335Z,21.74
2022-09-02T18:31:15.511Z,21.66
2022-09-02T18:33:51.208Z,21.52
2022-09-02T18:36:25.263Z,21.40
2022-09-02T18:38:58.485Z,21.42
2022-09-02T18:41:35.521Z,21.33
2022-09-02T18:44:15.269Z,21.30
2022-09-02T18:46:47.269Z,21.12
2022-09-02T18:49:15.528Z,20.97
2022-09-02T18:51:44.108Z,21.01
2022-09-02T18:54:15.959Z,20.98
2022-09-02T18:56:49.911Z,20.92
2022-09-02T18:59:20.935Z,20.86
2022-09-02T19:01:58.015Z,20.74
2022-09-02T19:04:29.453Z,20.65
2022-09-02T19:07:17.981Z,20.66
2022-09-02T19:09:45.135Z,20.54
2022-09-02T19:12:15.003Z,20.47
2022-09-02T19:14:43.216Z,20.40
2022-09-02T19:17:13.651Z,20.28
2022-09-02T19:19:41.691Z,20.36
2022-09-02T19:22:10.506Z,20.31
2022-09-02T19:24:42.741Z,20.24
2022-09-02T19:27:12.431Z,20.22
2022-09-02T19:29:41.421Z,20.16
2022-09-02T19:32:09.365Z,20.03
2022-09-02T19:34:39.525Z,20.08
2022-09-02T19:37:11.268Z,20.07
2022-09-02T19:39:39.621Z,20.03
2022-09-02T19:42:08.994Z,19.98
2022-09-02T19:44:37.007Z,19.96
2022-09-02T19:47:49.905Z,19.90
2022-09-02T19:49:54.947Z,19.82
2022-09-02T19:52:22.872Z,19.73
2022-09-02T19:54:51.008Z,19.74
2022-09-02T19:57:19.168Z,19.62
2022-09-02T19:59:47.081Z,19.60
2022-09-02T20:02:15.345Z,19.64
2022-09-02T20:04:44.531Z,19.61
2022-09-02T20:07:15.374Z,19.58
2022-09-02T20:09:43.313Z,19.53
2022-09-02T20:12:14.377Z,19.50
2022-09-02T20:14:42.506Z,19.43
2022-09-02T20:17:13.126Z,19.42
2022-09-02T20:19:45.020Z,19.40
2022-09-02T20:22:14.599Z,19.30
2022-09-02T20:24:42.874Z,19.37
2022-09-02T20:27:16.570Z,19.34
2022-09-02T20:29:54.787Z,19.40
2022-09-02T20:32:29.094Z,19.29
2022-09-02T20:35:03.865Z,19.40
2022-09-02T20:37:38.656Z,19.31
2022-09-02T20:40:13.655Z,19.22
2022-09-02T20:43:04.157Z,19.33
2022-09-02T20:45:34.721Z,19.31
2022-09-02T20:48:09.976Z,19.34
2022-09-02T20:50:46.497Z,19.24
2022-09-02T20:53:30.663Z,19.19
2022-09-02T20:56:01.959Z,19.18
2022-09-02T20:58:41.525Z,19.15
2022-09-02T21:01:11.395Z,19.13
2022-09-02T21:03:46.803Z,19.15
2022-09-02T21:06:15.961Z,19.15
2022-09-02T21:08:50.134Z,19.17
2022-09-02T21:11:21.007Z,19.09
2022-09-02T21:13:51.105Z,19.02
2022-09-02T21:16:20.691Z,19.09
2022-09-02T21:18:51.634Z,19.06
2022-09-02T21:21:23.165Z,19.01
2022-09-02T21:23:54.353Z,19.04
2022-09-02T21:26:23.626Z,19.00
2022-09-02T21:28:53.812Z,18.84
2022-09-02T21:31:26.094Z,18.97
2022-09-02T21:33:53.926Z,18.81
2022-09-02T21:36:24.691Z,18.84
2022-09-02T21:38:53.921Z,18.87
2022-09-02T21:41:30.329Z,18.84
2022-09-02T21:44:04.063Z,18.70
2022-09-02T21:46:34.475Z,18.61
2022-09-02T21:49:04.883Z,18.69
2022-09-02T21:51:36.103Z,18.65
2022-09-02T21:54:27.696Z,18.62
2022-09-02T21:57:10.228Z,18.58
2022-09-02T21:59:46.931Z,18.60
2022-09-02T22:02:19.600Z,18.57
2022-09-02T22:04:58.930Z,18.48
2022-09-02T22:07:37.275Z,18.51
2022-09-02T22:10:12.883Z,18.41
2022-09-02T22:12:41.159Z,18.30
2022-09-02T22:15:12.138Z,18.33
2022-09-02T22:17:45.826Z,18.27
2022-09-02T22:20:14.416Z,18.34
2022-09-02T22:22:45.114Z,18.41
2022-09-02T22:25:15.855Z,18.22
2022-09-02T22:27:46.351Z,18.26
2022-09-02T22:30:15.492Z,18.24
2022-09-02T22:32:45.902Z,18.15
2022-09-02T22:35:23.266Z,18.27
2022-09-02T22:37:55.476Z,18.15
2022-09-02T22:40:25.489Z,18.10
2022-09-02T22:42:54.625Z,18.03
2022-09-02T22:45:41.671Z,18.00
2022-09-02T22:48:30.124Z,18.04
2022-09-02T22:51:19.100Z,17.96
2022-09-02T22:53:48.075Z,17.98
2022-09-02T22:56:17.943Z,18.00
2022-09-02T22:59:07.794Z,18.02
2022-09-02T23:01:40.864Z,18.06
2022-09-02T23:04:14.572Z,17.96
2022-09-02T23:06:44.603Z,17.90
2022-09-02T23:09:14.782Z,17.81
2022-09-02T23:11:50.760Z,17.87
2022-09-02T23:14:26.557Z,17.86
2022-09-02T23:17:20.308Z,17.92
2022-09-02T23:19:56.468Z,17.75
2022-09-02T23:22:34.434Z,17.79
2022-09-02T23:25:17.012Z,17.77
2022-09-02T23:27:48.615Z,17.83
2022-09-02T23:30:16.800Z,17.72
2022-09-02T23:32:57.568Z,17.74
2022-09-02T23:35:34.034Z,17.65
2022-09-02T23:38:09.636Z,17.60
2022-09-02T23:40:40.547Z,17.51
2022-09-02T23:43:10.030Z,17.52
2022-09-02T23:45:37.953Z,17.57
2022-09-02T23:48:17.298Z,17.56
2022-09-02T23:50:50.288Z,17.52
2022-09-02T23:53:22.311Z,17.52
2022-09-02T23:55:53.869Z,17.53
2022-09-02T23:58:31.359Z,17.46
